createdAt,value
2022-10-04T00:02:05.652Z,20.75
2022-10-04T00:04:52.545Z,20.70
2022-10-04T00:07:28.549Z,18.17
2022-10-04T00:09:58.130Z,23.85
2022-10-04T00:12:27.965Z,18.50
2022-10-04T00:14:57.408Z,24.60
2022-10-04T00:17:27.428Z,23.48
2022-10-04T00:19:59.082Z,17.25
2022-10-04T00:22:30.865Z,19.95
2022-10-04T00:25:02.400Z,19.33
2022-10-04T00:27:32.448Z,23.02
2022-10-04T00:30:16.456Z,27.92
2022-10-04T00:32:48.034Z,21.95
2022-10-04T00:35:35.113Z,24.67
2022-10-04T00:38:09.437Z,16.77
2022-10-04T00:40:39.516Z,28.30
2022-10-04T00:43:08.335Z,14.13
2022-10-04T00:45:37.609Z,17.70
2022-10-04T00:48:37.952Z,25.27
2022-10-04T00:51:08.691Z,27.52
2022-10-04T00:53:59.718Z,14.73
2022-10-04T00:56:29.699Z,19.38
2022-10-04T00:59:15.607Z,26.48
2022-10-04T01:01:45.090Z,24.35
2022-10-04T01:04:16.945Z,18.27
2022-10-04T01:06:44.549Z,21.25
2022-10-04T01:09:13.892Z,20.63
2022-10-04T01:11:43.845Z,19.55
2022-10-04T01:14:14.932Z,29.45
2022-10-04T01:16:42.742Z,17.23
2022-10-04T01:19:25.641Z,23.60
2022-10-04T01:21:59.494Z,26.13
2022-10-04T01:24:34.636Z,16.48
2022-10-04T01:27:02.131Z,18.73
2022-10-04T01:29:30.369Z,19.33
2022-10-04T01:31:58.969Z,21.50
2022-10-04T01:34:27.320Z,21.55
2022-10-04T01:36:56.765Z,27.85
2022-10-04T01:39:25.402Z,21.40
2022-10-04T01:41:56.559Z,17.13
2022-10-04T01:44:27.237Z,17.80
2022-10-04T01:46:56.024Z,32.95
2022-10-04T01:49:25.571Z,19.38
2022-10-04T01:51:56.414Z,20.75
2022-10-04T01:54:30.628Z,22.80
2022-10-04T01:57:01.167Z,21.58
2022-10-04T01:59:30.230Z,22.95
2022-10-04T02:02:01.047Z,17.13
2022-10-04T02:04:30.061Z,21.88
2022-10-04T02:06:59.260Z,23.20
2022-10-04T02:09:27.983Z,26.05
2022-10-04T02:11:55.769Z,22.30
2022-10-04T02:14:26.929Z,17.85
2022-10-04T02:16:54.917Z,21.33
2022-10-04T02:19:24.375Z,18.45
2022-10-04T02:21:52.289Z,22.27
2022-10-04T02:26:50.249Z,20.23
2022-10-04T02:29:18.369Z,21.67
2022-10-04T02:32:05.284Z,16.52
2022-10-04T02:34:32.740Z,22.95
2022-10-04T02:37:03.839Z,22.45
2022-10-04T02:39:33.072Z,17.42
2022-10-04T02:42:03.740Z,19.63
2022-10-04T02:44:32.459Z,15.35
2022-10-04T02:47:06.912Z,18.00
2022-10-04T02:49:37.939Z,19.83
2022-10-04T02:52:08.493Z,19.20
2022-10-04T02:54:40.969Z,20.80
2022-10-04T02:57:15.157Z,24.35
2022-10-04T02:59:42.559Z,26.17
2022-10-04T03:02:29.053Z,25.48
2022-10-04T03:04:58.605Z,20.50
2022-10-04T03:07:26.226Z,25.00
2022-10-04T03:09:53.891Z,17.55
2022-10-04T03:12:22.084Z,13.10
2022-10-04T03:14:49.512Z,19.90
2022-10-04T03:17:17.498Z,30.90
2022-10-04T03:22:13.558Z,22.70
2022-10-04T03:24:46.943Z,22.23
2022-10-04T03:27:16.501Z,25.98
2022-10-04T03:29:44.294Z,23.00
2022-10-04T03:32:13.920Z,34.58
2022-10-04T03:34:43.988Z,22.88
2022-10-04T03:37:15.183Z,21.75
2022-10-04T03:39:43.176Z,19.88
2022-10-04T03:42:12.683Z,28.38
2022-10-04T03:44:41.905Z,18.08
2022-10-04T03:47:11.022Z,23.65
2022-10-04T03:49:38.706Z,27.15
2022-10-04T03:52:06.531Z,21.70
2022-10-04T03:57:03.020Z,23.80
2022-10-04T03:59:30.752Z,21.88
2022-10-04T04:02:04.526Z,17.95
2022-10-04T04:04:37.391Z,20.48
2022-10-04T04:07:06.386Z,18.30
2022-10-04T04:09:38.800Z,23.40
2022-10-04T04:12:12.113Z,17.27
2022-10-04T04:14:40.862Z,25.27
2022-10-04T04:17:19.945Z,21.48
2022-10-04T04:19:47.511Z,21.90
2022-10-04T04:22:16.481Z,15.73
2022-10-04T04:24:44.429Z,26.00
2022-10-04T04:29:47.472Z,21.73
2022-10-04T04:32:19.327Z,22.65
2022-10-04T04:34:50.652Z,30.92
2022-10-04T04:37:18.077Z,36.97
2022-10-04T04:39:49.144Z,24.42
2022-10-04T04:42:18.901Z,17.92
2022-10-04T04:44:49.745Z,27.25
2022-10-04T04:47:26.372Z,27.00
2022-10-04T04:49:54.376Z,19.48
2022-10-04T04:52:22.827Z,27.35
2022-10-04T04:54:50.216Z,23.77
2022-10-04T04:57:18.488Z,24.48
2022-10-04T04:59:47.812Z,28.73
2022-10-04T05:02:29.641Z,15.93
2022-10-04T05:05:16.908Z,17.60
2022-10-04T05:07:44.479Z,20.65
2022-10-04T05:10:32.066Z,22.05
2022-10-04T05:13:00.781Z,29.02
2022-10-04T05:15:29.416Z,19.30
2022-10-04T05:17:59.382Z,19.50
2022-10-04T05:20:27.762Z,24.63
2022-10-04T05:22:55.325Z,16.65
2022-10-04T05:25:26.797Z,24.65
2022-10-04T05:27:54.999Z,27.55
2022-10-04T05:30:32.230Z,26.23
2022-10-04T05:33:02.684Z,16.83
2022-10-04T05:35:30.535Z,23.85
2022-10-04T05:40:30.487Z,30.63
2022-10-04T05:42:59.343Z,25.05
2022-10-04T05:45:27.636Z,15.18
2022-10-04T05:47:55.668Z,27.88
2022-10-04T05:52:52.733Z,27.05
2022-10-04T05:55:26.958Z,44.22
2022-10-04T05:58:05.389Z,21.70
2022-10-04T06:00:38.577Z,24.02
2022-10-04T06:03:14.313Z,15.55
2022-10-04T06:05:44.887Z,32.95
2022-10-04T06:08:18.069Z,45.50
2022-10-04T06:10:54.552Z,25.95
2022-10-04T06:13:29.946Z,22.88
2022-10-04T06:16:11.607Z,23.00
2022-10-04T06:18:58.701Z,23.48
2022-10-04T06:21:26.425Z,29.48
2022-10-04T06:23:57.887Z,31.23
2022-10-04T06:26:27.323Z,19.65
2022-10-04T06:28:57.524Z,25.88
2022-10-04T06:31:48.869Z,20.40
2022-10-04T06:34:25.884Z,18.70
2022-10-04T06:37:01.871Z,18.75
2022-10-04T06:39:47.262Z,21.20
2022-10-04T06:42:24.982Z,19.98
2022-10-04T06:47:29.152Z,16.88
2022-10-04T06:50:01.050Z,21.00
2022-10-04T06:52:39.546Z,22.25
2022-10-04T06:55:14.911Z,19.48
2022-10-04T06:58:00.279Z,21.35
2022-10-04T07:00:30.244Z,24.02
2022-10-04T07:02:59.791Z,31.58
2022-10-04T07:05:31.273Z,18.80
2022-10-04T07:08:07.399Z,17.23
2022-10-04T07:10:40.107Z,24.38
2022-10-04T07:13:14.373Z,23.42
2022-10-04T07:15:49.855Z,20.40
2022-10-04T07:18:22.029Z,16.60
2022-10-04T07:20:51.303Z,19.23
2022-10-04T07:23:28.247Z,26.20
2022-10-04T07:25:57.722Z,16.15
2022-10-04T07:28:46.067Z,15.30
2022-10-04T07:31:21.818Z,18.10
2022-10-04T07:33:51.180Z,14.20
2022-10-04T07:36:22.080Z,15.65
2022-10-04T07:38:51.346Z,31.52
2022-10-04T07:41:21.844Z,16.83
2022-10-04T07:43:51.885Z,14.50
2022-10-04T07:46:24.318Z,17.48
2022-10-04T07:48:51.773Z,19.40
2022-10-04T07:51:27.831Z,23.50
2022-10-04T07:53:56.511Z,14.98
2022-10-04T07:56:27.720Z,15.15
2022-10-04T07:59:01.978Z,22.30
2022-10-04T08:01:34.341Z,19.95
2022-10-04T08:04:12.895Z,16.30
2022-10-04T08:06:56.057Z,16.30
2022-10-04T08:09:30.929Z,26.27
2022-10-04T08:12:02.703Z,20.17
2022-10-04T08:14:36.197Z,23.33
2022-10-04T08:17:15.564Z,11.27
2022-10-04T08:19:51.425Z,18.52
2022-10-04T08:22:23.731Z,19.92
2022-10-04T08:24:58.158Z,16.23
2022-10-04T08:27:32.850Z,18.83
2022-10-04T08:30:04.643Z,16.42
2022-10-04T08:32:46.643Z,12.27
2022-10-04T08:35:33.301Z,17.85
2022-10-04T08:38:04.965Z,14.52
2022-10-04T08:40:44.656Z,16.10
2022-10-04T08:43:29.159Z,13.07
2022-10-04T08:46:14.249Z,17.55
2022-10-04T08:48:51.357Z,16.33
2022-10-04T08:51:37.214Z,14.77
2022-10-04T08:54:27.790Z,11.60
2022-10-04T08:57:16.473Z,13.32
2022-10-04T09:00:10.116Z,14.63
2022-10-04T09:02:55.327Z,13.85
2022-10-04T09:05:32.191Z,17.85
2022-10-04T09:08:18.239Z,12.93
2022-10-04T09:10:50.671Z,17.35
2022-10-04T09:13:36.529Z,16.88
2022-10-04T09:16:06.802Z,18.88
2022-10-04T09:18:51.083Z,13.15
2022-10-04T09:21:35.893Z,15.32
2022-10-04T09:24:27.430Z,18.75
2022-10-04T09:26:59.947Z,14.05
2022-10-04T09:29:36.459Z,14.48
2022-10-04T09:32:20.795Z,10.05
2022-10-04T09:34:54.153Z,11.35
2022-10-04T09:37:29.771Z,16.25
2022-10-04T09:40:15.215Z,9.98
2022-10-04T09:43:07.745Z,17.67
2022-10-04T09:45:45.176Z,12.45
2022-10-04T09:48:26.459Z,9.70
2022-10-04T09:51:01.684Z,15.23
2022-10-04T09:53:44.312Z,10.15
2022-10-04T09:56:18.500Z,11.05
2022-10-04T09:59:07.268Z,18.75
2022-10-04T10:01:40.550Z,15.27
2022-10-04T10:04:23.930Z,12.20
2022-10-04T10:07:00.732Z,15.00
2022-10-04T10:09:51.815Z,21.38
2022-10-04T10:12:47.051Z,13.40
2022-10-04T10:15:18.353Z,13.50
2022-10-04T10:17:51.140Z,11.32
2022-10-04T10:20:26.571Z,11.55
2022-10-04T10:23:19.597Z,12.18
2022-10-04T10:25:53.357Z,12.45
2022-10-04T10:28:30.821Z,10.93
2022-10-04T10:31:08.572Z,16.50
2022-10-04T10:36:20.691Z,12.18
2022-10-04T10:38:52.816Z,11.63
2022-10-04T10:41:37.941Z,12.23
2022-10-04T10:44:19.717Z,16.90
2022-10-04T10:46:52.275Z,6.68
2022-10-04T10:49:31.551Z,11.35
2022-10-04T10:52:34.033Z,13.38
2022-10-04T10:55:16.304Z,8.88
2022-10-04T10:57:57.668Z,9.25
2022-10-04T11:00:26.069Z,9.50
2022-10-04T11:03:22.672Z,8.15
2022-10-04T11:06:00.012Z,7.25
2022-10-04T11:08:46.242Z,12.95
2022-10-04T11:11:22.729Z,8.40
2022-10-04T11:14:12.488Z,7.40
2022-10-04T11:16:58.608Z,8.70
2022-10-04T11:19:46.070Z,8.40
2022-10-04T11:22:32.685Z,7.40
2022-10-04T11:25:18.486Z,8.43
2022-10-04T11:27:49.495Z,14.60
2022-10-04T11:30:24.611Z,12.88
2022-10-04T11:33:06.906Z,8.25
2022-10-04T11:35:44.821Z,8.65
2022-10-04T11:38:22.986Z,9.73
2022-10-04T11:40:56.695Z,10.13
2022-10-04T11:43:32.773Z,8.02
2022-10-04T11:46:22.934Z,11.45
2022-10-04T11:48:56.428Z,7.43
2022-10-04T11:51:34.776Z,7.25
2022-10-04T11:54:21.235Z,5.18
2022-10-04T11:57:07.072Z,6.72
2022-10-04T11:59:39.347Z,9.70
2022-10-04T12:02:18.489Z,8.75
2022-10-04T12:05:04.404Z,5.97
2022-10-04T12:07:36.693Z,14.52
2022-10-04T12:10:18.865Z,8.15
2022-10-04T12:13:04.652Z,7.80
2022-10-04T12:15:39.042Z,7.72
2022-10-04T12:18:23.752Z,7.30
2022-10-04T12:21:08.918Z,6.35
2022-10-04T12:23:48.226Z,7.57
2022-10-04T12:26:32.915Z,5.93
2022-10-04T12:29:27.564Z,6.18
2022-10-04T12:31:58.193Z,13.20
2022-10-04T12:34:28.777Z,6.10
2022-10-04T12:37:20.381Z,6.32
2022-10-04T12:39:59.268Z,7.75
2022-10-04T12:42:34.937Z,8.80
2022-10-04T12:45:17.863Z,7.35
2022-10-04T12:47:55.537Z,5.80
2022-10-04T12:50:28.770Z,5.00
2022-10-04T12:53:02.639Z,6.47
2022-10-04T12:55:44.644Z,9.20
2022-10-04T12:58:20.064Z,3.83
2022-10-04T13:00:48.450Z,7.80
2022-10-04T13:03:27.523Z,5.47
2022-10-04T13:06:02.845Z,5.97
2022-10-04T13:08:38.526Z,5.03
2022-10-04T13:11:12.957Z,7.68
2022-10-04T13:13:47.575Z,5.95
2022-10-04T13:19:11.676Z,4.88
2022-10-04T13:22:06.212Z,5.55
2022-10-04T13:24:55.007Z,4.10
2022-10-04T13:27:28.570Z,7.15
2022-10-04T13:30:00.122Z,3.72
2022-10-04T13:32:29.029Z,6.72
2022-10-04T13:35:01.331Z,4.07
2022-10-04T13:37:35.489Z,4.47
2022-10-04T13:40:13.493Z,7.72
2022-10-04T13:42:49.179Z,5.00
2022-10-04T13:45:24.991Z,8.02
2022-10-04T13:47:57.583Z,6.15
2022-10-04T13:50:32.733Z,7.00
2022-10-04T13:53:24.653Z,5.97
2022-10-04T13:56:13.397Z,5.38
2022-10-04T13:58:46.146Z,5.07
2022-10-04T14:01:31.871Z,5.15
2022-10-04T14:04:09.304Z,4.03
2022-10-04T14:06:56.800Z,3.67
2022-10-04T14:09:51.460Z,5.68
2022-10-04T14:12:38.484Z,7.13
2022-10-04T14:15:25.802Z,5.75
2022-10-04T14:18:14.125Z,3.00
2022-10-04T14:21:01.538Z,4.90
2022-10-04T14:23:35.868Z,4.75
2022-10-04T14:26:14.413Z,3.63
2022-10-04T14:28:59.463Z,5.50
2022-10-04T14:31:40.122Z,4.30
2022-10-04T14:34:25.605Z,5.40
2022-10-04T14:37:15.567Z,5.45
2022-10-04T14:39:54.860Z,7.35
2022-10-04T14:42:41.108Z,7.28
2022-10-04T14:45:13.948Z,3.50
2022-10-04T14:48:00.182Z,4.22
2022-10-04T14:50:29.982Z,6.47
2022-10-04T14:53:09.393Z,7.45
2022-10-04T14:55:52.010Z,6.25
2022-10-04T14:58:26.335Z,10.98
2022-10-04T15:01:03.890Z,5.22
2022-10-04T15:03:33.199Z,4.90
2022-10-04T15:06:06.649Z,5.15
2022-10-04T15:08:58.220Z,6.00
2022-10-04T15:11:36.564Z,7.70
2022-10-04T15:14:05.452Z,4.38
2022-10-04T15:16:37.768Z,5.07
2022-10-04T15:19:09.837Z,6.20
2022-10-04T15:21:44.927Z,7.22
2022-10-04T15:24:28.124Z,5.18
2022-10-04T15:27:09.790Z,6.20
2022-10-04T15:29:41.256Z,6.35
2022-10-04T15:32:18.375Z,6.40
2022-10-04T15:34:54.330Z,13.75
2022-10-04T15:37:27.927Z,7.80
2022-10-04T15:40:04.958Z,5.97
2022-10-04T15:42:36.042Z,6.18
2022-10-04T15:45:23.096Z,8.48
2022-10-04T15:47:58.604Z,4.80
2022-10-04T15:50:29.575Z,10.93
2022-10-04T15:53:19.607Z,6.93
2022-10-04T15:56:11.829Z,8.35
2022-10-04T15:58:53.253Z,11.35
2022-10-04T16:01:30.436Z,8.98
2022-10-04T16:04:16.601Z,9.90
2022-10-04T16:06:49.198Z,7.43
2022-10-04T16:09:22.063Z,6.45
2022-10-04T16:12:09.693Z,10.77
2022-10-04T16:17:19.648Z,5.38
2022-10-04T16:20:02.509Z,11.52
2022-10-04T16:22:45.386Z,12.88
2022-10-04T16:25:32.685Z,7.35
2022-10-04T16:28:05.850Z,13.30
2022-10-04T16:30:38.559Z,12.30
2022-10-04T16:33:14.210Z,11.85
2022-10-04T16:35:45.392Z,15.13
2022-10-04T16:38:27.141Z,15.18
2022-10-04T16:41:02.407Z,11.35
2022-10-04T16:43:31.591Z,14.80
2022-10-04T16:46:09.504Z,9.15
2022-10-04T16:48:47.299Z,10.02
2022-10-04T16:51:32.658Z,13.80
2022-10-04T16:54:04.668Z,12.98
2022-10-04T16:56:33.558Z,17.20
2022-10-04T16:59:02.242Z,14.98
2022-10-04T17:01:52.892Z,21.45
2022-10-04T17:04:40.903Z,18.23
2022-10-04T17:07:15.490Z,14.07
2022-10-04T17:09:48.420Z,15.10
2022-10-04T17:12:18.195Z,15.25
2022-10-04T17:14:57.306Z,21.58
2022-10-04T17:17:32.936Z,26.15
2022-10-04T17:20:04.247Z,21.05
2022-10-04T17:22:38.949Z,19.35
2022-10-04T17:25:16.889Z,18.30
2022-10-04T17:27:46.012Z,23.90
2022-10-04T17:30:16.414Z,17.75
2022-10-04T17:32:50.246Z,18.98
2022-10-04T17:35:33.439Z,20.00
2022-10-04T17:38:05.206Z,14.43
2022-10-04T17:40:41.177Z,17.95
2022-10-04T17:43:15.617Z,20.45
2022-10-04T17:45:53.298Z,18.90
2022-10-04T17:51:31.491Z,19.48
2022-10-04T17:54:19.324Z,20.75
2022-10-04T17:56:50.309Z,23.00
2022-10-04T17:59:19.144Z,13.82
2022-10-04T18:01:49.352Z,23.98
2022-10-04T18:04:19.425Z,17.08
2022-10-04T18:06:54.372Z,17.50
2022-10-04T18:09:23.333Z,14.65
2022-10-04T18:11:51.992Z,22.85
2022-10-04T18:14:45.382Z,16.05
2022-10-04T18:17:15.496Z,17.08
2022-10-04T18:19:44.908Z,23.17
2022-10-04T18:22:15.473Z,14.30
2022-10-04T18:24:43.608Z,16.80
2022-10-04T18:27:18.584Z,19.02
2022-10-04T18:30:00.426Z,28.42
2022-10-04T18:32:35.406Z,14.98
2022-10-04T18:35:03.521Z,13.23
2022-10-04T18:37:33.963Z,21.23
2022-10-04T18:40:08.824Z,18.45
2022-10-04T18:42:37.029Z,19.17
2022-10-04T18:45:19.596Z,17.80
2022-10-04T18:47:46.993Z,24.17
2022-10-04T18:50:16.594Z,21.65
2022-10-04T18:52:51.450Z,25.83
2022-10-04T18:55:26.893Z,23.63
2022-10-04T18:58:18.144Z,20.15
2022-10-04T19:01:07.485Z,23.55
2022-10-04T19:03:38.455Z,20.42
2022-10-04T19:06:10.298Z,18.75
2022-10-04T19:08:42.524Z,20.63
2022-10-04T19:11:13.440Z,19.90
2022-10-04T19:13:44.745Z,21.92
2022-10-04T19:16:23.210Z,24.30
2022-10-04T19:18:55.801Z,22.88
2022-10-04T19:21:26.910Z,24.13
2022-10-04T19:24:02.915Z,21.77
2022-10-04T19:26:32.890Z,32.25
2022-10-04T19:29:06.559Z,24.10
2022-10-04T19:31:40.121Z,30.15
2022-10-04T19:34:12.048Z,31.88
2022-10-04T19:36:47.939Z,26.10
2022-10-04T19:39:23.812Z,24.73
2022-10-04T19:41:55.515Z,27.17
2022-10-04T19:44:30.246Z,22.35
2022-10-04T19:46:59.183Z,21.90
2022-10-04T19:49:31.751Z,24.55
2022-10-04T19:52:03.129Z,17.92
2022-10-04T19:54:35.468Z,26.75
2022-10-04T19:57:04.156Z,20.45
2022-10-04T19:59:36.392Z,18.45
2022-10-04T20:02:08.701Z,17.83
2022-10-04T20:04:37.838Z,24.42
2022-10-04T20:07:06.112Z,21.50
2022-10-04T20:09:51.366Z,19.95
2022-10-04T20:12:29.932Z,18.80
2022-10-04T20:15:15.875Z,18.42
2022-10-04T20:17:43.711Z,20.55
2022-10-04T20:20:14.127Z,20.35
2022-10-04T20:22:55.018Z,18.75
2022-10-04T20:25:37.296Z,22.67
2022-10-04T20:28:06.089Z,17.52
2022-10-04T20:30:50.386Z,21.00
2022-10-04T20:33:32.756Z,21.08
2022-10-04T20:36:01.173Z,18.60
2022-10-04T20:38:44.693Z,22.05
2022-10-04T20:41:26.980Z,19.50
2022-10-04T20:43:56.005Z,19.20
2022-10-04T20:46:23.852Z,14.52
2022-10-04T20:51:22.700Z,16.85
2022-10-04T20:53:51.008Z,16.77
2022-10-04T20:56:21.055Z,21.73
2022-10-04T20:58:51.566Z,20.35
2022-10-04T21:01:39.987Z,16.35
2022-10-04T21:04:14.178Z,19.50
2022-10-04T21:06:51.074Z,21.30
2022-10-04T21:09:18.495Z,10.63
2022-10-04T21:11:46.491Z,15.10
2022-10-04T21:16:47.333Z,20.55
2022-10-04T21:19:48.317Z,13.30
2022-10-04T21:22:37.668Z,16.67
2022-10-04T21:25:06.542Z,12.23
2022-10-04T21:27:34.915Z,18.05
2022-10-04T21:30:02.915Z,14.10
2022-10-04T21:34:58.884Z,21.85
2022-10-04T21:37:26.384Z,14.20
2022-10-04T21:39:53.750Z,14.60
2022-10-04T21:42:21.190Z,12.55
2022-10-04T21:44:48.640Z,11.98
2022-10-04T21:47:16.032Z,15.25
2022-10-04T21:49:43.436Z,15.27
2022-10-04T21:52:12.149Z,20.73
2022-10-04T21:54:39.623Z,15.00
2022-10-04T21:57:07.076Z,13.88
2022-10-04T21:59:34.575Z,13.15
2022-10-04T22:02:02.041Z,14.25
2022-10-04T22:04:29.500Z,12.02
2022-10-04T22:06:56.893Z,14.68
2022-10-04T22:09:25.660Z,14.48
2022-10-04T22:11:53.028Z,12.07
2022-10-04T22:14:20.489Z,13.65
2022-10-04T22:16:48.208Z,13.25
2022-10-04T22:21:43.129Z,14.70
2022-10-04T22:24:12.694Z,12.43
2022-10-04T22:26:41.389Z,14.23
2022-10-04T22:29:13.004Z,13.23
2022-10-04T22:31:43.923Z,17.88
2022-10-04T22:34:16.719Z,17.40
2022-10-04T22:36:44.890Z,15.23
2022-10-04T22:39:14.224Z,14.27
2022-10-04T22:41:43.463Z,12.25
2022-10-04T22:44:13.105Z,15.02
2022-10-04T22:46:41.808Z,19.60
2022-10-04T22:49:10.589Z,14.00
2022-10-04T22:51:38.936Z,12.40
2022-10-04T22:54:10.635Z,20.02
2022-10-04T22:56:38.083Z,15.10
2022-10-04T22:59:06.835Z,19.50
2022-10-04T23:01:34.220Z,16.30
2022-10-04T23:04:01.568Z,12.88
2022-10-04T23:06:28.998Z,12.18
2022-10-04T23:08:56.384Z,14.48
2022-10-04T23:11:23.807Z,16.60
2022-10-04T23:13:51.155Z,15.18
2022-10-04T23:16:22.876Z,13.93
2022-10-04T23:18:50.715Z,13.57
2022-10-04T23:21:23.520Z,14.38
2022-10-04T23:23:52.757Z,14.80
2022-10-04T23:26:22.753Z,11.18
2022-10-04T23:28:50.225Z,15.00
2022-10-04T23:31:20.437Z,14.82
2022-10-04T23:33:49.327Z,10.02
2022-10-04T23:36:16.731Z,11.77
2022-10-04T23:38:47.220Z,14.55
2022-10-04T23:41:14.676Z,18.10
2022-10-04T23:43:42.070Z,14.77
2022-10-04T23:46:12.854Z,11.82
2022-10-04T23:48:40.373Z,14.43
2022-10-04T23:51:11.588Z,12.82
2022-10-04T23:53:39.005Z,20.65
2022-10-04T23:56:09.042Z,11.77
2022-10-04T23:58:37.580Z,17.67
